sensor_id;sensor_type;location;lat;lon;timestamp;P1;durP1;ratioP1;P2;durP2;ratioP2
4806;SDS011;2417;52.482;13.432;2022-09-17T00:00:49;13.93;;;4.30;;
4806;SDS011;2417;52.482;13.432;2022-09-17T00:03:17;7.47;;;3.73;;
4806;SDS011;2417;52.482;13.432;2022-09-17T00:05:46;15.03;;;4.20;;
4806;SDS011;2417;52.482;13.432;2022-09-17T00:08:14;9.93;;;3.83;;
4806;SDS011;2417;52.482;13.432;2022-09-17T00:10:42;16.60;;;4.60;;
4806;SDS011;2417;52.482;13.432;2022-09-17T00:13:10;13.17;;;4.60;;
4806;SDS011;2417;52.482;13.432;2022-09-17T00:15:38;13.50;;;4.47;;
4806;SDS011;2417;52.482;13.432;2022-09-17T00:18:06;18.20;;;4.60;;
4806;SDS011;2417;52.482;13.432;2022-09-17T00:20:36;17.33;;;4.17;;
4806;SDS011;2417;52.482;13.432;2022-09-17T00:23:05;13.37;;;4.03;;
4806;SDS011;2417;52.482;13.432;2022-09-17T00:25:36;11.97;;;4.10;;
4806;SDS011;2417;52.482;13.432;2022-09-17T00:28:04;18.00;;;5.03;;
4806;SDS011;2417;52.482;13.432;2022-09-17T00:30:31;13.63;;;4.50;;
4806;SDS011;2417;52.482;13.432;2022-09-17T00:32:59;15.07;;;4.50;;
4806;SDS011;2417;52.482;13.432;2022-09-17T00:35:27;13.50;;;5.00;;
4806;SDS011;2417;52.482;13.432;2022-09-17T00:37:55;12.63;;;4.90;;
4806;SDS011;2417;52.482;13.432;2022-09-17T00:40:23;10.80;;;4.00;;
4806;SDS011;2417;52.482;13.432;2022-09-17T00:42:51;17.87;;;4.50;;
4806;SDS011;2417;52.482;13.432;2022-09-17T00:45:19;15.10;;;4.70;;
4806;SDS011;2417;52.482;13.432;2022-09-17T00:47:49;11.20;;;4.30;;
4806;SDS011;2417;52.482;13.432;2022-09-17T00:50:18;12.70;;;5.67;;
4806;SDS011;2417;52.482;13.432;2022-09-17T00:52:48;21.63;;;5.20;;
4806;SDS011;2417;52.482;13.432;2022-09-17T00:55:23;20.57;;;5.10;;
4806;SDS011;2417;52.482;13.432;2022-09-17T00:57:54;19.73;;;6.60;;
4806;SDS011;2417;52.482;13.432;2022-09-17T01:00:21;26.30;;;8.40;;
4806;SDS011;2417;52.482;13.432;2022-09-17T01:02:49;23.63;;;5.97;;
4806;SDS011;2417;52.482;13.432;2022-09-17T01:05:19;11.30;;;4.70;;
4806;SDS011;2417;52.482;13.432;2022-09-17T01:07:52;20.50;;;4.97;;
4806;SDS011;2417;52.482;13.432;2022-09-17T01:10:26;11.60;;;4.43;;
4806;SDS011;2417;52.482;13.432;2022-09-17T01:13:02;18.70;;;5.70;;
4806;SDS011;2417;52.482;13.432;2022-09-17T01:27:04;14.60;;;4.33;;
4806;SDS011;2417;52.482;13.432;2022-09-17T01:29:44;11.60;;;4.47;;
4806;SDS011;2417;52.482;13.432;2022-09-17T01:32:17;13.50;;;5.03;;
4806;SDS011;2417;52.482;13.432;2022-09-17T01:34:49;18.60;;;5.00;;
4806;SDS011;2417;52.482;13.432;2022-09-17T01:37:21;20.17;;;4.30;;
4806;SDS011;2417;52.482;13.432;2022-09-17T01:39:58;12.87;;;4.10;;
4806;SDS011;2417;52.482;13.432;2022-09-17T01:42:28;14.90;;;4.20;;
4806;SDS011;2417;52.482;13.432;2022-09-17T01:45:02;14.47;;;4.40;;
4806;SDS011;2417;52.482;13.432;2022-09-17T01:47:33;11.90;;;4.30;;
4806;SDS011;2417;52.482;13.432;2022-09-17T01:50:03;21.03;;;4.00;;
4806;SDS011;2417;52.482;13.432;2022-09-17T01:52:33;14.60;;;4.00;;
4806;SDS011;2417;52.482;13.432;2022-09-17T01:55:03;20.30;;;4.13;;
4806;SDS011;2417;52.482;13.432;2022-09-17T01:57:33;14.70;;;4.77;;
4806;SDS011;2417;52.482;13.432;2022-09-17T02:00:03;29.13;;;4.27;;
4806;SDS011;2417;52.482;13.432;2022-09-17T02:02:40;12.50;;;4.00;;
4806;SDS011;2417;52.482;13.432;2022-09-17T02:05:10;21.00;;;4.13;;
4806;SDS011;2417;52.482;13.432;2022-09-17T02:07:39;13.53;;;4.33;;
4806;SDS011;2417;52.482;13.432;2022-09-17T02:10:09;17.93;;;4.27;;
4806;SDS011;2417;52.482;13.432;2022-09-17T02:12:37;19.50;;;4.20;;
4806;SDS011;2417;52.482;13.432;2022-09-17T02:15:08;13.63;;;3.93;;
4806;SDS011;2417;52.482;13.432;2022-09-17T02:17:38;10.77;;;4.00;;
4806;SDS011;2417;52.482;13.432;2022-09-17T02:20:07;13.70;;;4.70;;
4806;SDS011;2417;52.482;13.432;2022-09-17T02:22:36;16.57;;;4.40;;
4806;SDS011;2417;52.482;13.432;2022-09-17T02:25:07;20.80;;;4.80;;
4806;SDS011;2417;52.482;13.432;2022-09-17T02:27:38;11.03;;;4.23;;
4806;SDS011;2417;52.482;13.432;2022-09-17T02:30:10;12.83;;;4.73;;
4806;SDS011;2417;52.482;13.432;2022-09-17T02:32:38;15.07;;;5.10;;
4806;SDS011;2417;52.482;13.432;2022-09-17T02:35:07;18.20;;;5.43;;
4806;SDS011;2417;52.482;13.432;2022-09-17T02:37:35;16.93;;;4.53;;
4806;SDS011;2417;52.482;13.432;2022-09-17T02:40:03;25.40;;;5.30;;
4806;SDS011;2417;52.482;13.432;2022-09-17T02:42:33;19.70;;;5.30;;
4806;SDS011;2417;52.482;13.432;2022-09-17T02:45:04;19.77;;;5.20;;
4806;SDS011;2417;52.482;13.432;2022-09-17T02:47:36;19.87;;;5.17;;
4806;SDS011;2417;52.482;13.432;2022-09-17T02:50:11;13.63;;;4.73;;
4806;SDS011;2417;52.482;13.432;2022-09-17T02:52:46;15.57;;;5.30;;
4806;SDS011;2417;52.482;13.432;2022-09-17T02:55:17;22.53;;;5.13;;
4806;SDS011;2417;52.482;13.432;2022-09-17T02:57:45;22.00;;;5.37;;
4806;SDS011;2417;52.482;13.432;2022-09-17T03:00:14;18.27;;;5.50;;
4806;SDS011;2417;52.482;13.432;2022-09-17T03:02:44;15.83;;;5.00;;
4806;SDS011;2417;52.482;13.432;2022-09-17T03:05:14;19.60;;;4.80;;
4806;SDS011;2417;52.482;13.432;2022-09-17T03:07:43;22.80;;;5.67;;
4806;SDS011;2417;52.482;13.432;2022-09-17T03:10:11;20.13;;;5.50;;
4806;SDS011;2417;52.482;13.432;2022-09-17T03:12:41;26.70;;;5.00;;
4806;SDS011;2417;52.482;13.432;2022-09-17T03:15:09;22.50;;;5.23;;
4806;SDS011;2417;52.482;13.432;2022-09-17T03:17:36;18.83;;;4.63;;
4806;SDS011;2417;52.482;13.432;2022-09-17T03:20:04;17.30;;;5.00;;
4806;SDS011;2417;52.482;13.432;2022-09-17T03:22:33;18.33;;;5.00;;
4806;SDS011;2417;52.482;13.432;2022-09-17T03:25:02;15.00;;;5.03;;
4806;SDS011;2417;52.482;13.432;2022-09-17T03:27:29;18.87;;;5.30;;
4806;SDS011;2417;52.482;13.432;2022-09-17T03:29:57;23.30;;;5.03;;
4806;SDS011;2417;52.482;13.432;2022-09-17T03:32:25;25.37;;;4.40;;
4806;SDS011;2417;52.482;13.432;2022-09-17T03:34:52;17.27;;;5.00;;
4806;SDS011;2417;52.482;13.432;2022-09-17T03:37:21;13.13;;;5.03;;
4806;SDS011;2417;52.482;13.432;2022-09-17T03:39:49;22.17;;;5.10;;
4806;SDS011;2417;52.482;13.432;2022-09-17T03:42:17;16.80;;;4.10;;
4806;SDS011;2417;52.482;13.432;2022-09-17T03:44:45;12.30;;;3.83;;
4806;SDS011;2417;52.482;13.432;2022-09-17T03:47:13;14.43;;;3.90;;
4806;SDS011;2417;52.482;13.432;2022-09-17T03:49:42;11.80;;;3.60;;
4806;SDS011;2417;52.482;13.432;2022-09-17T03:52:09;17.87;;;4.10;;
4806;SDS011;2417;52.482;13.432;2022-09-17T03:54:37;17.13;;;4.30;;
4806;SDS011;2417;52.482;13.432;2022-09-17T03:57:06;12.00;;;3.97;;
4806;SDS011;2417;52.482;13.432;2022-09-17T03:59:34;18.20;;;3.90;;
4806;SDS011;2417;52.482;13.432;2022-09-17T04:02:01;12.23;;;3.40;;
4806;SDS011;2417;52.482;13.432;2022-09-17T04:04:29;16.37;;;3.47;;
4806;SDS011;2417;52.482;13.432;2022-09-17T04:06:57;14.17;;;4.10;;
4806;SDS011;2417;52.482;13.432;2022-09-17T04:09:25;15.90;;;4.03;;
4806;SDS011;2417;52.482;13.432;2022-09-17T04:11:53;19.67;;;3.90;;
4806;SDS011;2417;52.482;13.432;2022-09-17T04:14:22;13.67;;;3.33;;
4806;SDS011;2417;52.482;13.432;2022-09-17T04:16:50;9.10;;;3.10;;
4806;SDS011;2417;52.482;13.432;2022-09-17T04:19:17;13.50;;;3.27;;
4806;SDS011;2417;52.482;13.432;2022-09-17T04:21:45;21.33;;;3.70;;
4806;SDS011;2417;52.482;13.432;2022-09-17T04:24:12;12.93;;;3.47;;
4806;SDS011;2417;52.482;13.432;2022-09-17T04:26:41;15.13;;;3.37;;
4806;SDS011;2417;52.482;13.432;2022-09-17T04:29:08;14.03;;;3.20;;
4806;SDS011;2417;52.482;13.432;2022-09-17T04:31:37;13.13;;;3.33;;
4806;SDS011;2417;52.482;13.432;2022-09-17T04:34:05;10.50;;;2.90;;
4806;SDS011;2417;52.482;13.432;2022-09-17T04:36:33;17.73;;;3.47;;
4806;SDS011;2417;52.482;13.432;2022-09-17T04:39:01;14.40;;;3.73;;
4806;SDS011;2417;52.482;13.432;2022-09-17T04:41:28;13.30;;;2.90;;
4806;SDS011;2417;52.482;13.432;2022-09-17T04:43:56;16.33;;;3.33;;
4806;SDS011;2417;52.482;13.432;2022-09-17T04:46:23;14.43;;;3.13;;
4806;SDS011;2417;52.482;13.432;2022-09-17T04:48:53;20.37;;;3.50;;
4806;SDS011;2417;52.482;13.432;2022-09-17T04:51:20;11.10;;;2.50;;
4806;SDS011;2417;52.482;13.432;2022-09-17T04:53:48;13.70;;;2.80;;
4806;SDS011;2417;52.482;13.432;2022-09-17T04:56:16;16.33;;;3.00;;
4806;SDS011;2417;52.482;13.432;2022-09-17T04:58:43;13.40;;;3.40;;
4806;SDS011;2417;52.482;13.432;2022-09-17T05:01:11;15.07;;;3.47;;
4806;SDS011;2417;52.482;13.432;2022-09-17T05:03:39;15.60;;;3.60;;
4806;SDS011;2417;52.482;13.432;2022-09-17T05:06:08;13.70;;;3.57;;
4806;SDS011;2417;52.482;13.432;2022-09-17T05:08:35;10.57;;;2.90;;
4806;SDS011;2417;52.482;13.432;2022-09-17T05:11:03;15.07;;;3.60;;
4806;SDS011;2417;52.482;13.432;2022-09-17T05:13:31;12.47;;;3.13;;
4806;SDS011;2417;52.482;13.432;2022-09-17T05:15:58;15.80;;;2.80;;
4806;SDS011;2417;52.482;13.432;2022-09-17T05:18:26;14.20;;;3.67;;
4806;SDS011;2417;52.482;13.432;2022-09-17T05:20:54;14.03;;;2.97;;
4806;SDS011;2417;52.482;13.432;2022-09-17T05:23:23;15.53;;;3.43;;
4806;SDS011;2417;52.482;13.432;2022-09-17T05:25:50;13.97;;;3.70;;
4806;SDS011;2417;52.482;13.432;2022-09-17T05:28:19;13.63;;;3.07;;
4806;SDS011;2417;52.482;13.432;2022-09-17T05:30:46;15.47;;;3.70;;
4806;SDS011;2417;52.482;13.432;2022-09-17T05:33:14;10.10;;;3.50;;
4806;SDS011;2417;52.482;13.432;2022-09-17T05:35:42;10.03;;;3.13;;
4806;SDS011;2417;52.482;13.432;2022-09-17T05:38:10;19.67;;;3.30;;
4806;SDS011;2417;52.482;13.432;2022-09-17T05:40:40;11.20;;;3.17;;
4806;SDS011;2417;52.482;13.432;2022-09-17T05:43:08;14.43;;;3.47;;
4806;SDS011;2417;52.482;13.432;2022-09-17T05:45:35;18.67;;;3.20;;
4806;SDS011;2417;52.482;13.432;2022-09-17T05:48:04;16.17;;;3.93;;
4806;SDS011;2417;52.482;13.432;2022-09-17T05:50:32;18.23;;;3.70;;
4806;SDS011;2417;52.482;13.432;2022-09-17T05:53:02;12.07;;;3.10;;
4806;SDS011;2417;52.482;13.432;2022-09-17T05:55:30;11.03;;;2.83;;
4806;SDS011;2417;52.482;13.432;2022-09-17T05:57:59;14.77;;;3.23;;
4806;SDS011;2417;52.482;13.432;2022-09-17T06:00:27;17.67;;;3.03;;
4806;SDS011;2417;52.482;13.432;2022-09-17T06:02:55;11.47;;;3.23;;
4806;SDS011;2417;52.482;13.432;2022-09-17T06:05:23;14.10;;;3.50;;
4806;SDS011;2417;52.482;13.432;2022-09-17T06:07:50;13.57;;;3.90;;
4806;SDS011;2417;52.482;13.432;2022-09-17T06:10:18;17.43;;;3.60;;
4806;SDS011;2417;52.482;13.432;2022-09-17T06:12:46;17.23;;;4.20;;
4806;SDS011;2417;52.482;13.432;2022-09-17T06:15:15;17.27;;;4.20;;
4806;SDS011;2417;52.482;13.432;2022-09-17T06:17:43;23.97;;;4.50;;
4806;SDS011;2417;52.482;13.432;2022-09-17T06:20:10;18.57;;;4.30;;
4806;SDS011;2417;52.482;13.432;2022-09-17T06:22:38;21.97;;;5.07;;
4806;SDS011;2417;52.482;13.432;2022-09-17T06:25:06;20.00;;;5.30;;
4806;SDS011;2417;52.482;13.432;2022-09-17T06:27:34;25.53;;;5.30;;
4806;SDS011;2417;52.482;13.432;2022-09-17T06:30:02;28.80;;;5.10;;
4806;SDS011;2417;52.482;13.432;2022-09-17T06:32:32;22.30;;;4.80;;
4806;SDS011;2417;52.482;13.432;2022-09-17T06:35:00;22.57;;;5.67;;
4806;SDS011;2417;52.482;13.432;2022-09-17T06:37:28;21.87;;;5.30;;
4806;SDS011;2417;52.482;13.432;2022-09-17T06:39:56;22.33;;;4.77;;
4806;SDS011;2417;52.482;13.432;2022-09-17T06:42:24;21.50;;;5.00;;
4806;SDS011;2417;52.482;13.432;2022-09-17T06:44:52;20.30;;;4.37;;
4806;SDS011;2417;52.482;13.432;2022-09-17T06:47:22;26.93;;;5.70;;
4806;SDS011;2417;52.482;13.432;2022-09-17T06:49:52;27.63;;;5.13;;
4806;SDS011;2417;52.482;13.432;2022-09-17T06:52:22;18.60;;;4.70;;
4806;SDS011;2417;52.482;13.432;2022-09-17T06:54:50;21.40;;;4.40;;
4806;SDS011;2417;52.482;13.432;2022-09-17T06:57:17;19.23;;;4.83;;
4806;SDS011;2417;52.482;13.432;2022-09-17T06:59:46;19.20;;;4.97;;
4806;SDS011;2417;52.482;13.432;2022-09-17T07:02:15;25.27;;;4.57;;
4806;SDS011;2417;52.482;13.432;2022-09-17T07:04:43;21.43;;;5.03;;
4806;SDS011;2417;52.482;13.432;2022-09-17T07:07:12;19.07;;;4.70;;
4806;SDS011;2417;52.482;13.432;2022-09-17T07:13:52;23.30;;;4.70;;
4806;SDS011;2417;52.482;13.432;2022-09-17T07:16:20;24.33;;;4.57;;
4806;SDS011;2417;52.482;13.432;2022-09-17T07:18:47;23.47;;;4.63;;
4806;SDS011;2417;52.482;13.432;2022-09-17T07:21:35;21.23;;;4.27;;
4806;SDS011;2417;52.482;13.432;2022-09-17T07:24:04;21.13;;;4.37;;
4806;SDS011;2417;52.482;13.432;2022-09-17T07:26:32;17.70;;;3.73;;
4806;SDS011;2417;52.482;13.432;2022-09-17T07:28:59;18.37;;;3.30;;
4806;SDS011;2417;52.482;13.432;2022-09-17T07:31:27;20.30;;;4.37;;
4806;SDS011;2417;52.482;13.432;2022-09-17T07:33:55;25.07;;;4.07;;
4806;SDS011;2417;52.482;13.432;2022-09-17T07:36:23;24.00;;;5.00;;
4806;SDS011;2417;52.482;13.432;2022-09-17T07:40:09;28.50;;;4.30;;
4806;SDS011;2417;52.482;13.432;2022-09-17T07:42:36;22.07;;;3.90;;
4806;SDS011;2417;52.482;13.432;2022-09-17T07:45:04;17.57;;;3.80;;
4806;SDS011;2417;52.482;13.432;2022-09-17T07:47:36;18.43;;;3.57;;
4806;SDS011;2417;52.482;13.432;2022-09-17T07:50:05;12.17;;;2.83;;
4806;SDS011;2417;52.482;13.432;2022-09-17T07:52:33;15.93;;;2.97;;
4806;SDS011;2417;52.482;13.432;2022-09-17T07:55:00;17.07;;;3.03;;
4806;SDS011;2417;52.482;13.432;2022-09-17T07:57:29;27.37;;;4.03;;
4806;SDS011;2417;52.482;13.432;2022-09-17T08:00:01;18.50;;;3.00;;
4806;SDS011;2417;52.482;13.432;2022-09-17T08:02:36;19.17;;;3.37;;
4806;SDS011;2417;52.482;13.432;2022-09-17T08:05:04;15.97;;;3.10;;
4806;SDS011;2417;52.482;13.432;2022-09-17T08:07:32;22.30;;;4.00;;
4806;SDS011;2417;52.482;13.432;2022-09-17T08:10:01;18.20;;;3.80;;
4806;SDS011;2417;52.482;13.432;2022-09-17T08:12:32;13.23;;;3.10;;
4806;SDS011;2417;52.482;13.432;2022-09-17T08:15:00;20.30;;;3.53;;
4806;SDS011;2417;52.482;13.432;2022-09-17T08:17:28;21.97;;;3.20;;
4806;SDS011;2417;52.482;13.432;2022-09-17T08:19:55;18.67;;;3.40;;
4806;SDS011;2417;52.482;13.432;2022-09-17T08:22:23;19.10;;;3.33;;
4806;SDS011;2417;52.482;13.432;2022-09-17T08:28:52;17.83;;;3.20;;
4806;SDS011;2417;52.482;13.432;2022-09-17T08:31:22;14.60;;;2.73;;
4806;SDS011;2417;52.482;13.432;2022-09-17T08:33:50;15.90;;;2.93;;
4806;SDS011;2417;52.482;13.432;2022-09-17T08:36:18;12.13;;;2.87;;
4806;SDS011;2417;52.482;13.432;2022-09-17T08:38:46;13.37;;;2.70;;
4806;SDS011;2417;52.482;13.432;2022-09-17T08:41:19;17.67;;;2.90;;
4806;SDS011;2417;52.482;13.432;2022-09-17T08:43:51;15.70;;;3.03;;
4806;SDS011;2417;52.482;13.432;2022-09-17T08:46:26;13.60;;;2.80;;
4806;SDS011;2417;52.482;13.432;2022-09-17T08:48:58;11.37;;;2.87;;
4806;SDS011;2417;52.482;13.432;2022-09-17T08:51:30;16.50;;;4.30;;
4806;SDS011;2417;52.482;13.432;2022-09-17T08:54:02;13.23;;;2.63;;
4806;SDS011;2417;52.482;13.432;2022-09-17T08:56:33;17.40;;;4.27;;
4806;SDS011;2417;52.482;13.432;2022-09-17T08:59:06;15.03;;;4.10;;
4806;SDS011;2417;52.482;13.432;2022-09-17T09:01:41;14.33;;;2.83;;
4806;SDS011;2417;52.482;13.432;2022-09-17T09:04:18;15.30;;;3.23;;
4806;SDS011;2417;52.482;13.432;2022-09-17T09:06:50;11.73;;;2.33;;
4806;SDS011;2417;52.482;13.432;2022-09-17T09:09:20;15.60;;;3.20;;
4806;SDS011;2417;52.482;13.432;2022-09-17T09:11:58;13.43;;;2.60;;
4806;SDS011;2417;52.482;13.432;2022-09-17T09:14:28;16.10;;;2.40;;
4806;SDS011;2417;52.482;13.432;2022-09-17T09:16:59;16.43;;;2.80;;
4806;SDS011;2417;52.482;13.432;2022-09-17T09:19:30;16.47;;;3.67;;
4806;SDS011;2417;52.482;13.432;2022-09-17T09:22:01;12.87;;;2.60;;
4806;SDS011;2417;52.482;13.432;2022-09-17T09:24:32;18.90;;;3.20;;
4806;SDS011;2417;52.482;13.432;2022-09-17T09:27:04;15.67;;;3.37;;
4806;SDS011;2417;52.482;13.432;2022-09-17T09:29:39;12.90;;;2.90;;
4806;SDS011;2417;52.482;13.432;2022-09-17T09:32:13;19.20;;;3.03;;
4806;SDS011;2417;52.482;13.432;2022-09-17T09:34:42;16.43;;;3.57;;
4806;SDS011;2417;52.482;13.432;2022-09-17T09:37:11;17.17;;;3.40;;
4806;SDS011;2417;52.482;13.432;2022-09-17T09:39:41;13.00;;;2.50;;
4806;SDS011;2417;52.482;13.432;2022-09-17T09:42:13;14.40;;;2.60;;
4806;SDS011;2417;52.482;13.432;2022-09-17T09:44:44;11.03;;;2.63;;
4806;SDS011;2417;52.482;13.432;2022-09-17T09:47:18;13.17;;;3.10;;
4806;SDS011;2417;52.482;13.432;2022-09-17T09:49:54;21.97;;;2.80;;
4806;SDS011;2417;52.482;13.432;2022-09-17T09:52:32;10.60;;;2.77;;
4806;SDS011;2417;52.482;13.432;2022-09-17T09:55:13;13.70;;;3.20;;
4806;SDS011;2417;52.482;13.432;2022-09-17T09:57:43;14.90;;;2.80;;
4806;SDS011;2417;52.482;13.432;2022-09-17T10:00:23;17.10;;;3.73;;
4806;SDS011;2417;52.482;13.432;2022-09-17T10:02:54;23.80;;;4.03;;
4806;SDS011;2417;52.482;13.432;2022-09-17T10:05:23;16.30;;;3.70;;
4806;SDS011;2417;52.482;13.432;2022-09-17T10:07:52;21.80;;;5.60;;
4806;SDS011;2417;52.482;13.432;2022-09-17T10:10:21;16.77;;;5.10;;
4806;SDS011;2417;52.482;13.432;2022-09-17T10:12:59;15.33;;;4.40;;
4806;SDS011;2417;52.482;13.432;2022-09-17T10:15:33;15.03;;;3.70;;
4806;SDS011;2417;52.482;13.432;2022-09-17T10:18:14;12.97;;;3.00;;
4806;SDS011;2417;52.482;13.432;2022-09-17T10:20:50;21.47;;;5.63;;
4806;SDS011;2417;52.482;13.432;2022-09-17T10:23:39;213.67;;;104.87;;
4806;SDS011;2417;52.482;13.432;2022-09-17T10:26:18;184.80;;;82.87;;
4806;SDS011;2417;52.482;13.432;2022-09-17T10:28:47;144.13;;;57.30;;
4806;SDS011;2417;52.482;13.432;2022-09-17T10:31:17;147.20;;;56.27;;
4806;SDS011;2417;52.482;13.432;2022-09-17T10:33:54;220.00;;;81.53;;
4806;SDS011;2417;52.482;13.432;2022-09-17T10:41:52;114.13;;;46.47;;
4806;SDS011;2417;52.482;13.432;2022-09-17T10:44:21;51.53;;;19.40;;
4806;SDS011;2417;52.482;13.432;2022-09-17T10:46:49;50.33;;;19.53;;
4806;SDS011;2417;52.482;13.432;2022-09-17T10:49:21;19.23;;;3.67;;
4806;SDS011;2417;52.482;13.432;2022-09-17T10:51:51;16.93;;;4.30;;
4806;SDS011;2417;52.482;13.432;2022-09-17T10:54:34;10.93;;;2.63;;
4806;SDS011;2417;52.482;13.432;2022-09-17T10:57:06;18.73;;;3.33;;
4806;SDS011;2417;52.482;13.432;2022-09-17T10:59:39;13.67;;;2.80;;
4806;SDS011;2417;52.482;13.432;2022-09-17T11:02:19;13.10;;;2.60;;
4806;SDS011;2417;52.482;13.432;2022-09-17T11:04:54;10.13;;;2.10;;
4806;SDS011;2417;52.482;13.432;2022-09-17T11:10:11;13.97;;;2.33;;
4806;SDS011;2417;52.482;13.432;2022-09-17T11:12:48;15.50;;;2.70;;
4806;SDS011;2417;52.482;13.432;2022-09-17T11:15:24;14.43;;;2.50;;
4806;SDS011;2417;52.482;13.432;2022-09-17T11:18:11;11.60;;;2.70;;
4806;SDS011;2417;52.482;13.432;2022-09-17T11:20:49;10.40;;;2.30;;
4806;SDS011;2417;52.482;13.432;2022-09-17T11:23:22;11.80;;;2.20;;
4806;SDS011;2417;52.482;13.432;2022-09-17T11:25:51;12.93;;;2.30;;
4806;SDS011;2417;52.482;13.432;2022-09-17T11:28:31;11.53;;;2.33;;
4806;SDS011;2417;52.482;13.432;2022-09-17T11:31:04;13.13;;;2.10;;
4806;SDS011;2417;52.482;13.432;2022-09-17T11:33:44;7.43;;;1.90;;
4806;SDS011;2417;52.482;13.432;2022-09-17T11:36:16;9.30;;;2.00;;
4806;SDS011;2417;52.482;13.432;2022-09-17T11:38:48;11.97;;;2.00;;
4806;SDS011;2417;52.482;13.432;2022-09-17T11:41:17;6.20;;;1.90;;
4806;SDS011;2417;52.482;13.432;2022-09-17T11:43:46;8.87;;;2.10;;
4806;SDS011;2417;52.482;13.432;2022-09-17T11:46:16;7.63;;;1.87;;
4806;SDS011;2417;52.482;13.432;2022-09-17T11:48:46;9.83;;;2.13;;
4806;SDS011;2417;52.482;13.432;2022-09-17T11:51:23;10.43;;;2.30;;
4806;SDS011;2417;52.482;13.432;2022-09-17T11:53:54;10.30;;;2.00;;
4806;SDS011;2417;52.482;13.432;2022-09-17T11:56:27;12.20;;;2.57;;
4806;SDS011;2417;52.482;13.432;2022-09-17T11:58:57;10.83;;;2.50;;
4806;SDS011;2417;52.482;13.432;2022-09-17T12:01:29;8.00;;;2.00;;
4806;SDS011;2417;52.482;13.432;2022-09-17T12:03:57;9.60;;;1.90;;
4806;SDS011;2417;52.482;13.432;2022-09-17T12:06:30;7.73;;;2.10;;
4806;SDS011;2417;52.482;13.432;2022-09-17T12:09:01;10.77;;;2.20;;
4806;SDS011;2417;52.482;13.432;2022-09-17T12:11:32;9.20;;;2.23;;
4806;SDS011;2417;52.482;13.432;2022-09-17T12:14:03;6.70;;;1.53;;
4806;SDS011;2417;52.482;13.432;2022-09-17T12:16:33;7.90;;;1.67;;
4806;SDS011;2417;52.482;13.432;2022-09-17T12:19:03;7.20;;;1.80;;
4806;SDS011;2417;52.482;13.432;2022-09-17T12:21:35;7.33;;;1.63;;
4806;SDS011;2417;52.482;13.432;2022-09-17T12:24:06;18.13;;;1.53;;
4806;SDS011;2417;52.482;13.432;2022-09-17T12:29:28;9.63;;;1.63;;
4806;SDS011;2417;52.482;13.432;2022-09-17T12:32:00;8.93;;;1.70;;
4806;SDS011;2417;52.482;13.432;2022-09-17T12:34:33;8.23;;;1.73;;
4806;SDS011;2417;52.482;13.432;2022-09-17T12:37:09;7.40;;;1.63;;
4806;SDS011;2417;52.482;13.432;2022-09-17T12:42:23;12.03;;;1.80;;
4806;SDS011;2417;52.482;13.432;2022-09-17T12:44:59;5.53;;;1.57;;
4806;SDS011;2417;52.482;13.432;2022-09-17T12:47:45;8.33;;;1.67;;
4806;SDS011;2417;52.482;13.432;2022-09-17T12:50:16;9.63;;;1.40;;
4806;SDS011;2417;52.482;13.432;2022-09-17T12:52:50;7.33;;;1.33;;
4806;SDS011;2417;52.482;13.432;2022-09-17T12:55:39;5.27;;;1.27;;
4806;SDS011;2417;52.482;13.432;2022-09-17T12:58:10;9.30;;;1.37;;
4806;SDS011;2417;52.482;13.432;2022-09-17T13:00:45;7.13;;;1.33;;
4806;SDS011;2417;52.482;13.432;2022-09-17T13:03:16;7.70;;;1.40;;
4806;SDS011;2417;52.482;13.432;2022-09-17T13:05:50;13.57;;;2.20;;
4806;SDS011;2417;52.482;13.432;2022-09-17T13:08:29;11.40;;;2.17;;
4806;SDS011;2417;52.482;13.432;2022-09-17T13:11:10;9.90;;;2.30;;
4806;SDS011;2417;52.482;13.432;2022-09-17T13:13:42;9.93;;;2.23;;
4806;SDS011;2417;52.482;13.432;2022-09-17T13:16:16;8.20;;;1.70;;
4806;SDS011;2417;52.482;13.432;2022-09-17T13:18:47;6.10;;;1.50;;
4806;SDS011;2417;52.482;13.432;2022-09-17T13:21:39;8.30;;;1.70;;
4806;SDS011;2417;52.482;13.432;2022-09-17T13:24:15;7.63;;;1.63;;
4806;SDS011;2417;52.482;13.432;2022-09-17T13:26:43;6.23;;;1.10;;
4806;SDS011;2417;52.482;13.432;2022-09-17T13:29:12;7.67;;;1.40;;
4806;SDS011;2417;52.482;13.432;2022-09-17T13:32:00;7.07;;;1.20;;
4806;SDS011;2417;52.482;13.432;2022-09-17T13:34:28;7.50;;;1.60;;
4806;SDS011;2417;52.482;13.432;2022-09-17T13:36:56;9.33;;;1.60;;
4806;SDS011;2417;52.482;13.432;2022-09-17T13:39:33;5.80;;;1.30;;
4806;SDS011;2417;52.482;13.432;2022-09-17T13:42:02;7.27;;;1.47;;
4806;SDS011;2417;52.482;13.432;2022-09-17T13:44:32;6.20;;;1.40;;
4806;SDS011;2417;52.482;13.432;2022-09-17T13:47:07;5.67;;;1.47;;
4806;SDS011;2417;52.482;13.432;2022-09-17T13:49:35;10.60;;;1.47;;
4806;SDS011;2417;52.482;13.432;2022-09-17T13:52:09;6.80;;;1.30;;
4806;SDS011;2417;52.482;13.432;2022-09-17T13:54:38;12.73;;;2.13;;
4806;SDS011;2417;52.482;13.432;2022-09-17T13:57:07;5.70;;;1.20;;
4806;SDS011;2417;52.482;13.432;2022-09-17T13:59:36;6.53;;;1.60;;
4806;SDS011;2417;52.482;13.432;2022-09-17T14:05:19;10.63;;;1.30;;
4806;SDS011;2417;52.482;13.432;2022-09-17T14:07:50;6.40;;;1.47;;
4806;SDS011;2417;52.482;13.432;2022-09-17T14:10:32;9.47;;;1.30;;
4806;SDS011;2417;52.482;13.432;2022-09-17T14:15:57;14.80;;;2.10;;
4806;SDS011;2417;52.482;13.432;2022-09-17T14:21:19;8.13;;;1.53;;
4806;SDS011;2417;52.482;13.432;2022-09-17T14:23:52;12.03;;;1.97;;
4806;SDS011;2417;52.482;13.432;2022-09-17T14:26:26;9.40;;;2.00;;
4806;SDS011;2417;52.482;13.432;2022-09-17T14:28:58;10.80;;;2.10;;
4806;SDS011;2417;52.482;13.432;2022-09-17T14:31:30;11.10;;;1.83;;
4806;SDS011;2417;52.482;13.432;2022-09-17T14:34:00;14.67;;;1.90;;
4806;SDS011;2417;52.482;13.432;2022-09-17T14:36:28;6.97;;;1.40;;
4806;SDS011;2417;52.482;13.432;2022-09-17T14:38:57;8.60;;;1.50;;
4806;SDS011;2417;52.482;13.432;2022-09-17T14:41:27;7.30;;;1.50;;
4806;SDS011;2417;52.482;13.432;2022-09-17T14:43:59;4.67;;;1.47;;
4806;SDS011;2417;52.482;13.432;2022-09-17T14:46:29;13.20;;;1.40;;
4806;SDS011;2417;52.482;13.432;2022-09-17T14:49:12;11.23;;;1.60;;
4806;SDS011;2417;52.482;13.432;2022-09-17T14:51:39;6.20;;;1.83;;
4806;SDS011;2417;52.482;13.432;2022-09-17T14:54:14;20.23;;;2.00;;
4806;SDS011;2417;52.482;13.432;2022-09-17T14:56:45;6.30;;;1.60;;
4806;SDS011;2417;52.482;13.432;2022-09-17T14:59:16;4.67;;;1.20;;
4806;SDS011;2417;52.482;13.432;2022-09-17T15:01:46;6.47;;;1.37;;
4806;SDS011;2417;52.482;13.432;2022-09-17T15:04:22;7.93;;;1.50;;
4806;SDS011;2417;52.482;13.432;2022-09-17T15:06:49;6.17;;;1.20;;
4806;SDS011;2417;52.482;13.432;2022-09-17T15:09:21;6.83;;;1.27;;
4806;SDS011;2417;52.482;13.432;2022-09-17T15:11:51;6.53;;;1.00;;
4806;SDS011;2417;52.482;13.432;2022-09-17T15:14:20;2.40;;;0.67;;
4806;SDS011;2417;52.482;13.432;2022-09-17T15:16:49;2.90;;;0.80;;
4806;SDS011;2417;52.482;13.432;2022-09-17T15:19:21;3.93;;;0.80;;
4806;SDS011;2417;52.482;13.432;2022-09-17T15:21:49;3.43;;;0.90;;
4806;SDS011;2417;52.482;13.432;2022-09-17T15:24:19;2.60;;;0.60;;
4806;SDS011;2417;52.482;13.432;2022-09-17T15:26:49;3.70;;;0.80;;
4806;SDS011;2417;52.482;13.432;2022-09-17T15:29:20;4.33;;;0.83;;
4806;SDS011;2417;52.482;13.432;2022-09-17T15:31:49;3.53;;;1.00;;
4806;SDS011;2417;52.482;13.432;2022-09-17T15:34:17;3.97;;;1.03;;
4806;SDS011;2417;52.482;13.432;2022-09-17T15:39:27;2.90;;;0.77;;
4806;SDS011;2417;52.482;13.432;2022-09-17T15:41:55;5.80;;;0.90;;
4806;SDS011;2417;52.482;13.432;2022-09-17T15:44:24;2.73;;;0.77;;
4806;SDS011;2417;52.482;13.432;2022-09-17T15:50:02;3.90;;;0.90;;
4806;SDS011;2417;52.482;13.432;2022-09-17T15:52:32;3.30;;;1.00;;
4806;SDS011;2417;52.482;13.432;2022-09-17T15:55:00;3.97;;;0.97;;
4806;SDS011;2417;52.482;13.432;2022-09-17T15:57:28;8.30;;;0.87;;
4806;SDS011;2417;52.482;13.432;2022-09-17T16:00:06;8.33;;;1.60;;